createdAt,value
2022-11-12T00:01:37.591Z,5.78
2022-11-12T00:04:22.404Z,5.77
2022-11-12T00:07:07.682Z,5.76
2022-11-12T00:09:54.334Z,5.75
2022-11-12T00:12:39.723Z,5.70
2022-11-12T00:15:25.337Z,5.68
2022-11-12T00:18:10.285Z,5.61
2022-11-12T00:20:55.381Z,5.65
2022-11-12T00:23:40.426Z,5.58
2022-11-12T00:26:26.906Z,5.57
2022-11-12T00:29:12.410Z,5.55
2022-11-12T00:31:57.734Z,5.61
2022-11-12T00:34:43.049Z,5.52
2022-11-12T00:37:28.033Z,5.52
2022-11-12T00:40:13.250Z,5.45
2022-11-12T00:42:59.944Z,5.45
2022-11-12T00:45:45.106Z,5.45
2022-11-12T00:48:30.274Z,5.47
2022-11-12T00:51:15.554Z,5.46
2022-11-12T00:54:01.575Z,5.53
2022-11-12T00:56:47.290Z,5.51
2022-11-12T00:59:33.579Z,5.49
2022-11-12T01:02:20.119Z,5.51
2022-11-12T01:05:05.429Z,5.49
2022-11-12T01:07:54.831Z,5.50
2022-11-12T01:10:41.328Z,5.51
2022-11-12T01:13:26.459Z,5.53
2022-11-12T01:16:15.677Z,5.51
2022-11-12T01:19:03.419Z,5.62
2022-11-12T01:21:48.614Z,5.65
2022-11-12T01:24:33.791Z,5.62
2022-11-12T01:27:18.946Z,5.61
2022-11-12T01:30:05.568Z,5.64
2022-11-12T01:32:51.922Z,5.64
2022-11-12T01:35:37.160Z,5.63
2022-11-12T01:38:22.340Z,5.59
2022-11-12T01:41:09.095Z,5.60
2022-11-12T01:44:11.488Z,5.59
2022-11-12T01:47:01.543Z,5.53
2022-11-12T01:49:56.832Z,5.60
2022-11-12T01:52:46.180Z,5.61
2022-11-12T01:55:34.343Z,5.59
2022-11-12T01:58:22.100Z,5.57
2022-11-12T02:01:07.410Z,5.56
2022-11-12T02:03:52.629Z,5.53
2022-11-12T02:06:39.904Z,5.54
2022-11-12T02:09:26.039Z,5.53
2022-11-12T02:12:11.376Z,5.52
2022-11-12T02:14:56.675Z,5.50
2022-11-12T02:17:41.900Z,5.51
2022-11-12T02:20:27.207Z,5.49
2022-11-12T02:23:13.724Z,5.53
2022-11-12T02:25:59.511Z,5.47
2022-11-12T02:28:44.579Z,5.45
2022-11-12T02:31:29.868Z,5.48
2022-11-12T02:34:15.654Z,5.43
2022-11-12T02:37:00.927Z,5.44
2022-11-12T02:39:47.361Z,5.43
2022-11-12T02:42:32.604Z,5.39
2022-11-12T02:45:18.639Z,5.29
2022-11-12T02:48:03.712Z,5.24
2022-11-12T02:50:48.913Z,5.34
2022-11-12T02:53:34.355Z,5.38
2022-11-12T02:56:20.839Z,5.37
2022-11-12T02:59:06.045Z,5.25
2022-11-12T03:01:51.495Z,5.33
2022-11-12T03:04:36.623Z,5.29
2022-11-12T03:07:21.835Z,5.23
2022-11-12T03:10:07.672Z,5.23
2022-11-12T03:12:56.547Z,5.10
2022-11-12T03:15:41.615Z,5.21
2022-11-12T03:18:27.327Z,5.17
2022-11-12T03:21:12.648Z,5.19
2022-11-12T03:23:58.052Z,5.12
2022-11-12T03:26:42.876Z,5.12
2022-11-12T03:29:29.420Z,5.07
2022-11-12T03:32:14.768Z,5.01
2022-11-12T03:34:59.949Z,4.98
2022-11-12T03:37:45.476Z,4.98
2022-11-12T03:40:30.787Z,5.00
2022-11-12T03:43:16.288Z,4.95
2022-11-12T03:46:02.688Z,4.94
2022-11-12T03:48:48.005Z,4.99
2022-11-12T03:51:33.130Z,4.93
2022-11-12T03:54:17.941Z,4.88
2022-11-12T03:57:03.283Z,4.78
2022-11-12T03:59:48.542Z,4.80
2022-11-12T04:02:35.165Z,4.87
2022-11-12T04:05:20.693Z,4.86
2022-11-12T04:08:07.989Z,4.88
2022-11-12T04:10:53.033Z,4.67
2022-11-12T04:13:38.741Z,4.76
2022-11-12T04:16:24.539Z,4.88
2022-11-12T04:19:12.857Z,4.88
2022-11-12T04:22:01.189Z,4.90
2022-11-12T04:24:46.461Z,4.75
2022-11-12T04:27:34.985Z,4.70
2022-11-12T04:30:20.333Z,4.72
2022-11-12T04:33:05.293Z,4.68
2022-11-12T04:35:51.924Z,4.70
2022-11-12T04:38:37.188Z,4.67
2022-11-12T04:41:22.549Z,4.67
2022-11-12T04:44:11.717Z,4.55
2022-11-12T04:46:56.582Z,4.60
2022-11-12T04:49:41.457Z,4.56
2022-11-12T04:52:29.050Z,4.64
2022-11-12T04:55:14.242Z,4.66
2022-11-12T04:58:00.993Z,4.63
2022-11-12T05:00:46.401Z,4.69
2022-11-12T05:03:31.473Z,4.68
2022-11-12T05:06:16.674Z,4.57
2022-11-12T05:09:03.514Z,4.54
2022-11-12T05:11:48.633Z,4.50
2022-11-12T05:14:33.838Z,4.49
2022-11-12T05:17:18.802Z,4.46
2022-11-12T05:20:05.142Z,4.49
2022-11-12T05:23:04.937Z,4.37
2022-11-12T05:25:52.394Z,4.38
2022-11-12T05:28:37.624Z,4.30
2022-11-12T05:31:22.986Z,4.40
2022-11-12T05:34:08.367Z,4.38
2022-11-12T05:36:53.710Z,4.38
2022-11-12T05:39:39.226Z,4.30
2022-11-12T05:42:25.366Z,4.24
2022-11-12T05:45:10.663Z,4.17
2022-11-12T05:47:56.080Z,4.16
2022-11-12T05:51:06.315Z,4.10
2022-11-12T05:53:46.212Z,4.01
2022-11-12T05:56:32.090Z,4.02
2022-11-12T05:59:18.814Z,4.00
2022-11-12T06:02:04.160Z,3.96
2022-11-12T06:04:49.328Z,3.95
2022-11-12T06:07:34.270Z,3.99
2022-11-12T06:10:20.815Z,3.95
2022-11-12T06:13:06.144Z,4.01
2022-11-12T06:15:53.138Z,4.02
2022-11-12T06:18:38.069Z,3.94
2022-11-12T06:21:23.414Z,3.98
2022-11-12T06:24:09.154Z,3.99
2022-11-12T06:26:53.976Z,3.87
2022-11-12T06:29:39.186Z,3.80
2022-11-12T06:32:25.684Z,3.80
2022-11-12T06:35:11.032Z,3.80
2022-11-12T06:37:56.334Z,3.78
2022-11-12T06:40:41.997Z,3.83
2022-11-12T06:43:29.569Z,3.76
2022-11-12T06:46:16.684Z,3.77
2022-11-12T06:49:03.219Z,3.76
2022-11-12T06:51:50.163Z,3.82
2022-11-12T06:54:35.248Z,3.83
2022-11-12T06:57:20.612Z,3.85
2022-11-12T07:00:07.166Z,3.84
2022-11-12T07:02:52.097Z,3.82
2022-11-12T07:05:38.756Z,3.82
2022-11-12T07:08:24.492Z,3.82
2022-11-12T07:11:10.303Z,3.92
2022-11-12T07:13:55.848Z,3.94
2022-11-12T07:16:41.126Z,3.96
2022-11-12T07:19:26.336Z,4.05
2022-11-12T07:22:12.801Z,4.02
2022-11-12T07:24:58.147Z,4.06
2022-11-12T07:27:43.527Z,4.07
2022-11-12T07:30:28.458Z,4.08
2022-11-12T07:33:13.715Z,4.22
2022-11-12T07:36:00.491Z,4.32
2022-11-12T07:38:50.171Z,4.46
2022-11-12T07:41:35.480Z,4.51
2022-11-12T07:44:20.699Z,4.52
2022-11-12T07:47:05.742Z,4.62
2022-11-12T07:49:51.152Z,4.60
2022-11-12T07:52:36.670Z,4.65
2022-11-12T07:55:23.180Z,4.90
2022-11-12T07:58:08.448Z,6.33
2022-11-12T08:00:54.157Z,7.48
2022-11-12T08:03:39.157Z,8.15
2022-11-12T08:06:24.314Z,8.08
2022-11-12T08:09:09.424Z,8.59
2022-11-12T08:11:55.948Z,8.59
2022-11-12T08:14:41.248Z,8.51
2022-11-12T08:17:26.748Z,9.84
2022-11-12T08:20:11.973Z,9.78
2022-11-12T08:23:00.478Z,9.88
2022-11-12T08:25:45.508Z,9.31
2022-11-12T08:28:33.933Z,10.72
2022-11-12T08:31:22.037Z,9.82
2022-11-12T08:34:07.160Z,10.82
2022-11-12T08:36:52.427Z,11.24
2022-11-12T08:39:37.285Z,11.10
2022-11-12T08:42:22.680Z,11.49
2022-11-12T08:45:10.259Z,11.07
2022-11-12T08:47:59.154Z,11.08
2022-11-12T08:50:44.056Z,11.73
2022-11-12T08:53:29.271Z,12.22
2022-11-12T08:56:14.683Z,12.45
2022-11-12T08:59:03.759Z,12.62
2022-11-12T09:01:52.911Z,11.95
2022-11-12T09:04:38.073Z,10.72
2022-11-12T09:07:48.835Z,11.92
2022-11-12T09:10:28.862Z,12.08
2022-11-12T09:13:14.520Z,12.60
2022-11-12T09:16:00.481Z,12.87
2022-11-12T09:18:47.822Z,12.82
2022-11-12T09:21:33.027Z,13.58
2022-11-12T09:24:18.221Z,13.78
2022-11-12T09:27:03.702Z,13.88
2022-11-12T09:29:49.049Z,12.97
2022-11-12T09:32:34.311Z,12.01
2022-11-12T09:35:21.098Z,13.00
2022-11-12T09:38:06.610Z,13.58
2022-11-12T09:41:12.715Z,12.97
2022-11-12T09:44:01.787Z,13.85
2022-11-12T09:46:50.790Z,13.21
2022-11-12T09:49:38.293Z,14.66
2022-11-12T09:52:28.509Z,13.30
2022-11-12T09:55:29.136Z,13.14
2022-11-12T09:58:16.298Z,14.11
2022-11-12T10:01:09.665Z,13.52
2022-11-12T10:04:07.943Z,12.67
2022-11-12T10:07:01.472Z,13.29
2022-11-12T10:09:59.856Z,13.51
2022-11-12T10:12:57.075Z,13.86
2022-11-12T10:16:01.915Z,13.79
2022-11-12T10:19:02.116Z,13.28
2022-11-12T10:21:55.039Z,13.27
2022-11-12T10:24:42.968Z,13.77
2022-11-12T10:27:36.941Z,13.93
2022-11-12T10:30:24.264Z,13.76
2022-11-12T10:33:13.793Z,15.21
2022-11-12T10:36:12.573Z,15.26
2022-11-12T10:38:57.561Z,14.25
2022-11-12T10:41:43.054Z,14.12
2022-11-12T10:44:29.919Z,14.13
2022-11-12T10:47:32.601Z,13.47
2022-11-12T10:50:21.781Z,13.22
2022-11-12T10:53:07.896Z,13.31
2022-11-12T10:55:58.436Z,13.59
2022-11-12T10:58:43.561Z,12.85
2022-11-12T11:01:35.666Z,12.65
2022-11-12T11:04:29.368Z,12.57
2022-11-12T11:07:22.896Z,12.27
2022-11-12T11:10:24.488Z,11.93
2022-11-12T11:13:20.888Z,11.86
2022-11-12T11:16:10.335Z,11.69
2022-11-12T11:19:00.731Z,11.57
2022-11-12T11:22:06.762Z,11.19
2022-11-12T11:25:03.443Z,11.42
2022-11-12T11:28:01.625Z,11.50
2022-11-12T11:30:59.151Z,11.63
2022-11-12T11:33:50.786Z,11.21
2022-11-12T11:36:47.187Z,11.54
2022-11-12T11:39:42.615Z,11.58
2022-11-12T11:42:42.796Z,11.03
2022-11-12T11:45:36.938Z,11.43
2022-11-12T11:48:33.335Z,11.25
2022-11-12T11:51:40.941Z,11.29
2022-11-12T11:54:50.899Z,11.36
2022-11-12T11:57:45.060Z,11.44
2022-11-12T12:00:39.112Z,11.33
2022-11-12T12:03:32.980Z,11.50
2022-11-12T12:06:24.818Z,11.43
2022-11-12T12:09:28.899Z,11.59
2022-11-12T12:12:28.119Z,11.60
2022-11-12T12:15:39.738Z,11.51
2022-11-12T12:18:34.315Z,11.39
2022-11-12T12:21:20.757Z,11.39
2022-11-12T12:24:12.724Z,11.49
2022-11-12T12:27:04.686Z,11.66
2022-11-12T12:29:52.726Z,11.63
2022-11-12T12:32:47.354Z,11.62
2022-11-12T12:35:36.935Z,11.77
2022-11-12T12:38:29.566Z,11.84
2022-11-12T12:41:22.011Z,11.76
2022-11-12T12:44:09.864Z,11.90
2022-11-12T12:46:58.280Z,11.80
2022-11-12T12:49:44.455Z,11.98
2022-11-12T12:52:29.621Z,11.94
2022-11-12T12:55:37.436Z,11.97
2022-11-12T12:58:27.505Z,12.24
2022-11-12T13:01:28.429Z,12.20
2022-11-12T13:04:13.799Z,12.26
2022-11-12T13:06:59.335Z,12.33
2022-11-12T13:09:44.567Z,12.22
2022-11-12T13:13:04.387Z,12.31
2022-11-12T13:15:51.029Z,12.33
2022-11-12T13:19:03.755Z,12.38
2022-11-12T13:22:33.913Z,12.40
2022-11-12T13:25:27.421Z,12.46
2022-11-12T13:28:13.083Z,12.53
2022-11-12T13:31:00.285Z,12.54
2022-11-12T13:33:45.531Z,12.53
2022-11-12T13:36:30.989Z,12.51
2022-11-12T13:39:20.028Z,12.57
2022-11-12T13:42:13.618Z,12.60
2022-11-12T13:45:00.235Z,12.56
2022-11-12T13:47:45.912Z,12.54
2022-11-12T13:50:35.201Z,12.55
2022-11-12T13:53:26.305Z,12.47
2022-11-12T13:56:26.411Z,12.43
2022-11-12T13:59:14.829Z,12.40
2022-11-12T14:02:04.681Z,12.44
2022-11-12T14:04:50.221Z,12.39
2022-11-12T14:07:46.390Z,12.42
2022-11-12T14:10:39.199Z,12.47
2022-11-12T14:13:43.742Z,12.46
2022-11-12T14:16:42.638Z,12.46
2022-11-12T14:20:07.053Z,12.50
2022-11-12T14:22:58.821Z,12.53
2022-11-12T14:25:48.745Z,12.55
2022-11-12T14:28:37.154Z,12.56
2022-11-12T14:31:24.912Z,12.53
2022-11-12T14:34:20.195Z,12.56
2022-11-12T14:37:05.398Z,12.59
2022-11-12T14:39:50.794Z,12.56
2022-11-12T14:42:36.276Z,12.57
2022-11-12T14:45:23.906Z,12.61
2022-11-12T14:48:09.574Z,12.57
2022-11-12T14:51:01.673Z,12.63
2022-11-12T14:53:53.346Z,12.65
2022-11-12T14:56:42.417Z,12.64
2022-11-12T14:59:28.344Z,12.67
2022-11-12T15:05:24.688Z,12.62
2022-11-12T15:08:11.646Z,12.60
2022-11-12T15:11:18.755Z,12.55
2022-11-12T15:14:13.300Z,12.50
2022-11-12T15:16:58.764Z,12.41
2022-11-12T15:19:45.374Z,12.44
2022-11-12T15:22:31.540Z,12.37
2022-11-12T15:25:21.350Z,12.33
2022-11-12T15:28:14.753Z,12.26
2022-11-12T15:31:01.312Z,12.22
2022-11-12T15:33:46.605Z,12.15
2022-11-12T15:36:33.457Z,12.09
2022-11-12T15:39:19.643Z,12.04
2022-11-12T15:42:13.489Z,11.98
2022-11-12T15:45:00.401Z,11.87
2022-11-12T15:47:45.837Z,11.74
2022-11-12T15:50:31.100Z,11.61
2022-11-12T15:53:18.523Z,11.56
2022-11-12T15:56:04.013Z,11.45
2022-11-12T15:58:49.437Z,11.41
2022-11-12T16:01:34.666Z,11.35
2022-11-12T16:04:20.073Z,11.31
2022-11-12T16:07:05.200Z,11.22
2022-11-12T16:09:51.781Z,11.11
2022-11-12T16:12:37.018Z,11.04
2022-11-12T16:15:22.373Z,11.01
2022-11-12T16:18:09.938Z,10.94
2022-11-12T16:20:54.927Z,10.88
2022-11-12T16:23:39.771Z,10.89
2022-11-12T16:26:30.562Z,10.86
2022-11-12T16:29:15.773Z,10.75
2022-11-12T16:32:00.782Z,10.72
2022-11-12T16:34:46.014Z,10.66
2022-11-12T16:37:31.728Z,10.59
2022-11-12T16:40:21.562Z,10.54
2022-11-12T16:43:08.879Z,10.50
2022-11-12T16:45:54.205Z,10.43
2022-11-12T16:48:39.555Z,10.36
2022-11-12T16:51:24.785Z,10.29
2022-11-12T16:54:10.334Z,10.21
2022-11-12T16:56:55.563Z,10.22
2022-11-12T16:59:42.268Z,10.19
2022-11-12T17:02:27.540Z,10.15
2022-11-12T17:05:15.563Z,10.17
2022-11-12T17:08:00.490Z,10.18
2022-11-12T17:10:45.747Z,10.15
2022-11-12T17:13:31.021Z,10.12
2022-11-12T17:16:17.404Z,10.16
2022-11-12T17:19:02.878Z,10.25
2022-11-12T17:21:48.251Z,10.25
2022-11-12T17:24:33.626Z,10.25
2022-11-12T17:27:18.870Z,10.20
2022-11-12T17:30:05.225Z,10.16
2022-11-12T17:32:51.555Z,10.13
2022-11-12T17:35:36.755Z,10.10
2022-11-12T17:38:21.862Z,10.09
2022-11-12T17:41:08.110Z,10.01
2022-11-12T17:43:54.623Z,10.01
2022-11-12T17:46:39.786Z,9.96
2022-11-12T17:49:25.839Z,9.94
2022-11-12T17:52:11.135Z,9.89
2022-11-12T17:54:56.272Z,9.83
2022-11-12T17:57:41.249Z,9.81
2022-11-12T18:00:26.533Z,9.78
2022-11-12T18:03:11.676Z,9.81
2022-11-12T18:05:59.665Z,9.79
2022-11-12T18:08:44.833Z,9.79
2022-11-12T18:11:32.508Z,9.76
2022-11-12T18:14:17.840Z,9.79
2022-11-12T18:17:02.969Z,9.76
2022-11-12T18:19:48.236Z,9.80
2022-11-12T18:22:34.484Z,9.81
2022-11-12T18:25:20.845Z,9.78
2022-11-12T18:28:06.612Z,9.79
2022-11-12T18:30:58.153Z,9.75
2022-11-12T18:33:43.104Z,9.69
2022-11-12T18:36:30.808Z,9.70
2022-11-12T18:39:17.316Z,9.70
2022-11-12T18:42:02.441Z,9.68
2022-11-12T18:44:47.847Z,9.55
2022-11-12T18:47:37.033Z,9.56
2022-11-12T18:50:22.045Z,9.57
2022-11-12T18:53:07.313Z,9.55
2022-11-12T18:55:54.258Z,9.51
2022-11-12T18:58:39.905Z,9.48
2022-11-12T19:01:25.228Z,9.34
2022-11-12T19:04:10.951Z,9.33
2022-11-12T19:06:56.451Z,9.34
2022-11-12T19:09:41.656Z,9.30
2022-11-12T19:12:28.358Z,9.26
2022-11-12T19:15:13.830Z,9.25
2022-11-12T19:17:58.987Z,9.25
2022-11-12T19:20:44.847Z,9.20
2022-11-12T19:23:30.381Z,9.26
2022-11-12T19:26:17.554Z,9.24
2022-11-12T19:29:04.018Z,9.15
2022-11-12T19:31:49.207Z,9.12
2022-11-12T19:34:34.722Z,9.06
2022-11-12T19:37:33.130Z,9.06
2022-11-12T19:40:18.910Z,9.04
2022-11-12T19:43:04.174Z,9.01
2022-11-12T19:45:50.695Z,8.96
2022-11-12T19:48:35.790Z,8.95
2022-11-12T19:51:21.126Z,8.92
2022-11-12T19:54:09.915Z,8.95
2022-11-12T19:56:55.363Z,8.96
2022-11-12T19:59:40.329Z,8.92
2022-11-12T20:02:27.109Z,8.84
2022-11-12T20:05:12.795Z,8.90
2022-11-12T20:07:57.800Z,8.93
2022-11-12T20:10:43.131Z,8.89
2022-11-12T20:13:28.553Z,8.93
2022-11-12T20:16:18.491Z,8.84
2022-11-12T20:19:10.260Z,8.76
2022-11-12T20:21:55.448Z,8.66
2022-11-12T20:24:40.572Z,8.72
2022-11-12T20:27:26.500Z,8.66
2022-11-12T20:30:12.512Z,8.70
2022-11-12T20:32:57.727Z,8.68
2022-11-12T20:35:44.272Z,8.65
2022-11-12T20:38:30.405Z,8.63
2022-11-12T20:41:17.554Z,8.61
2022-11-12T20:44:03.044Z,8.62
2022-11-12T20:46:48.301Z,8.61
2022-11-12T20:49:33.559Z,8.59
2022-11-12T20:52:20.001Z,8.56
2022-11-12T20:55:06.133Z,8.47
2022-11-12T20:57:50.993Z,8.40
2022-11-12T21:00:35.900Z,8.40
2022-11-12T21:03:21.157Z,8.35
2022-11-12T21:06:08.737Z,8.27
2022-11-12T21:08:57.904Z,8.24
2022-11-12T21:11:42.903Z,8.23
2022-11-12T21:14:28.172Z,8.16
2022-11-12T21:17:13.158Z,8.12
2022-11-12T21:19:58.642Z,8.11
2022-11-12T21:22:43.884Z,8.08
2022-11-12T21:25:34.508Z,8.01
2022-11-12T21:28:19.709Z,8.03
2022-11-12T21:31:06.385Z,7.90
2022-11-12T21:33:52.331Z,7.86
2022-11-12T21:36:37.305Z,7.86
2022-11-12T21:39:22.207Z,7.87
2022-11-12T21:42:08.742Z,7.80
2022-11-12T21:44:54.073Z,7.78
2022-11-12T21:47:39.285Z,7.68
2022-11-12T21:50:24.845Z,7.66
2022-11-12T21:53:10.087Z,7.59
2022-11-12T21:56:01.225Z,7.56
2022-11-12T21:58:47.907Z,7.61
2022-11-12T22:01:34.377Z,7.62
2022-11-12T22:04:19.288Z,7.59
2022-11-12T22:07:04.959Z,7.55
2022-11-12T22:09:55.370Z,7.55
2022-11-12T22:12:58.636Z,7.54
2022-11-12T22:15:47.865Z,7.53
2022-11-12T22:18:33.417Z,7.48
2022-11-12T22:21:20.470Z,7.53
2022-11-12T22:24:06.742Z,7.55
2022-11-12T22:26:51.917Z,7.54
2022-11-12T22:29:36.781Z,7.53
2022-11-12T22:32:23.468Z,7.51
2022-11-12T22:35:08.952Z,7.41
2022-11-12T22:37:54.349Z,7.41
2022-11-12T22:40:39.448Z,7.37
2022-11-12T22:43:24.799Z,7.36
2022-11-12T22:46:11.837Z,7.41
2022-11-12T22:48:59.409Z,7.45
2022-11-12T22:51:44.393Z,7.46
2022-11-12T22:54:29.815Z,7.45
2022-11-12T22:57:15.195Z,7.49
2022-11-12T23:00:00.220Z,7.50
2022-11-12T23:02:47.691Z,7.47
2022-11-12T23:05:34.539Z,7.45
2022-11-12T23:08:19.828Z,7.44
2022-11-12T23:11:06.367Z,7.44
2022-11-12T23:13:52.149Z,7.36
2022-11-12T23:16:37.295Z,7.32
2022-11-12T23:19:22.708Z,7.33
2022-11-12T23:22:09.357Z,7.20
2022-11-12T23:24:54.632Z,7.29
2022-11-12T23:27:39.928Z,7.26
2022-11-12T23:30:25.686Z,7.25
2022-11-12T23:33:10.641Z,7.22
2022-11-12T23:36:04.011Z,7.23
2022-11-12T23:38:50.732Z,7.20
2022-11-12T23:41:35.873Z,7.17
2022-11-12T23:44:20.801Z,7.10
2022-11-12T23:47:06.088Z,7.08
2022-11-12T23:49:51.262Z,7.17
2022-11-12T23:52:36.503Z,7.16
2022-11-12T23:55:22.904Z,7.11
2022-11-12T23:58:08.345Z,7.16
